sensor_id;sensor_type;location;lat;lon;timestamp;P1;durP1;ratioP1;P2;durP2;ratioP2
64714;SDS011;51144;53.002;6.506;2022-11-18T00:01:15;28.20;;;23.27;;
64714;SDS011;51144;53.002;6.506;2022-11-18T00:03:43;28.45;;;24.63;;
64714;SDS011;51144;53.002;6.506;2022-11-18T00:06:10;28.80;;;25.85;;
64714;SDS011;51144;53.002;6.506;2022-11-18T00:08:40;27.25;;;24.23;;
64714;SDS011;51144;53.002;6.506;2022-11-18T00:11:07;25.85;;;23.00;;
64714;SDS011;51144;53.002;6.506;2022-11-18T00:13:35;27.35;;;23.48;;
64714;SDS011;51144;53.002;6.506;2022-11-18T00:16:20;28.65;;;25.27;;
64714;SDS011;51144;53.002;6.506;2022-11-18T00:18:46;30.30;;;23.42;;
64714;SDS011;51144;53.002;6.506;2022-11-18T00:21:12;29.58;;;23.80;;
64714;SDS011;51144;53.002;6.506;2022-11-18T00:23:38;30.63;;;23.48;;
64714;SDS011;51144;53.002;6.506;2022-11-18T00:26:08;30.27;;;25.23;;
64714;SDS011;51144;53.002;6.506;2022-11-18T00:28:36;34.25;;;27.23;;
64714;SDS011;51144;53.002;6.506;2022-11-18T00:31:07;29.92;;;25.38;;
64714;SDS011;51144;53.002;6.506;2022-11-18T00:33:37;31.20;;;23.95;;
64714;SDS011;51144;53.002;6.506;2022-11-18T00:36:03;34.78;;;26.88;;
64714;SDS011;51144;53.002;6.506;2022-11-18T00:38:31;32.85;;;25.60;;
64714;SDS011;51144;53.002;6.506;2022-11-18T00:41:04;37.65;;;27.30;;
64714;SDS011;51144;53.002;6.506;2022-11-18T00:43:32;34.50;;;26.27;;
64714;SDS011;51144;53.002;6.506;2022-11-18T00:45:58;33.88;;;24.67;;
64714;SDS011;51144;53.002;6.506;2022-11-18T00:48:24;34.35;;;26.88;;
64714;SDS011;51144;53.002;6.506;2022-11-18T00:50:50;37.25;;;28.40;;
64714;SDS011;51144;53.002;6.506;2022-11-18T00:53:17;37.10;;;27.50;;
64714;SDS011;51144;53.002;6.506;2022-11-18T00:55:44;42.03;;;28.23;;
64714;SDS011;51144;53.002;6.506;2022-11-18T00:58:10;38.25;;;24.50;;
64714;SDS011;51144;53.002;6.506;2022-11-18T01:00:38;44.50;;;28.10;;
64714;SDS011;51144;53.002;6.506;2022-11-18T01:03:09;43.63;;;28.17;;
64714;SDS011;51144;53.002;6.506;2022-11-18T01:05:36;43.72;;;28.77;;
64714;SDS011;51144;53.002;6.506;2022-11-18T01:08:02;49.13;;;26.40;;
64714;SDS011;51144;53.002;6.506;2022-11-18T01:10:28;44.63;;;28.83;;
64714;SDS011;51144;53.002;6.506;2022-11-18T01:12:54;48.90;;;30.15;;
64714;SDS011;51144;53.002;6.506;2022-11-18T01:15:39;49.58;;;29.02;;
64714;SDS011;51144;53.002;6.506;2022-11-18T01:18:06;43.58;;;29.48;;
64714;SDS011;51144;53.002;6.506;2022-11-18T01:20:32;47.78;;;28.42;;
64714;SDS011;51144;53.002;6.506;2022-11-18T01:22:58;51.22;;;27.88;;
64714;SDS011;51144;53.002;6.506;2022-11-18T01:25:24;46.17;;;30.30;;
64714;SDS011;51144;53.002;6.506;2022-11-18T01:27:50;53.47;;;31.70;;
64714;SDS011;51144;53.002;6.506;2022-11-18T01:30:15;47.28;;;29.42;;
64714;SDS011;51144;53.002;6.506;2022-11-18T01:32:42;42.38;;;26.30;;
64714;SDS011;51144;53.002;6.506;2022-11-18T01:35:08;49.83;;;28.35;;
64714;SDS011;51144;53.002;6.506;2022-11-18T01:37:34;48.25;;;31.00;;
64714;SDS011;51144;53.002;6.506;2022-11-18T01:39:59;49.95;;;29.88;;
64714;SDS011;51144;53.002;6.506;2022-11-18T01:42:25;51.35;;;31.92;;
64714;SDS011;51144;53.002;6.506;2022-11-18T01:47:32;45.72;;;29.58;;
64714;SDS011;51144;53.002;6.506;2022-11-18T01:50:04;46.85;;;29.48;;
64714;SDS011;51144;53.002;6.506;2022-11-18T01:52:30;49.97;;;28.08;;
64714;SDS011;51144;53.002;6.506;2022-11-18T01:54:58;51.10;;;31.15;;
64714;SDS011;51144;53.002;6.506;2022-11-18T01:57:29;48.60;;;30.85;;
64714;SDS011;51144;53.002;6.506;2022-11-18T01:59:56;47.50;;;30.40;;
64714;SDS011;51144;53.002;6.506;2022-11-18T02:02:25;50.95;;;30.13;;
64714;SDS011;51144;53.002;6.506;2022-11-18T02:04:51;52.20;;;30.50;;
64714;SDS011;51144;53.002;6.506;2022-11-18T02:07:19;47.88;;;30.20;;
64714;SDS011;51144;53.002;6.506;2022-11-18T02:09:46;50.80;;;31.27;;
64714;SDS011;51144;53.002;6.506;2022-11-18T02:12:11;46.83;;;31.23;;
64714;SDS011;51144;53.002;6.506;2022-11-18T02:14:40;48.92;;;29.70;;
64714;SDS011;51144;53.002;6.506;2022-11-18T02:25:07;46.60;;;28.48;;
64714;SDS011;51144;53.002;6.506;2022-11-18T02:27:57;45.47;;;30.20;;
64714;SDS011;51144;53.002;6.506;2022-11-18T02:33:33;42.80;;;29.20;;
64714;SDS011;51144;53.002;6.506;2022-11-18T02:36:24;40.60;;;28.05;;
64714;SDS011;51144;53.002;6.506;2022-11-18T02:39:01;42.63;;;27.63;;
64714;SDS011;51144;53.002;6.506;2022-11-18T02:41:34;47.70;;;29.05;;
64714;SDS011;51144;53.002;6.506;2022-11-18T02:44:13;47.90;;;29.55;;
64714;SDS011;51144;53.002;6.506;2022-11-18T02:46:41;42.90;;;30.00;;
64714;SDS011;51144;53.002;6.506;2022-11-18T02:49:24;49.17;;;28.25;;
64714;SDS011;51144;53.002;6.506;2022-11-18T02:51:55;45.53;;;28.92;;
64714;SDS011;51144;53.002;6.506;2022-11-18T02:54:22;48.25;;;29.27;;
64714;SDS011;51144;53.002;6.506;2022-11-18T02:56:50;48.17;;;29.35;;
64714;SDS011;51144;53.002;6.506;2022-11-18T02:59:18;43.95;;;28.05;;
64714;SDS011;51144;53.002;6.506;2022-11-18T03:01:44;45.65;;;29.83;;
64714;SDS011;51144;53.002;6.506;2022-11-18T03:04:10;45.80;;;29.13;;
64714;SDS011;51144;53.002;6.506;2022-11-18T03:06:37;51.08;;;30.33;;
64714;SDS011;51144;53.002;6.506;2022-11-18T03:11:50;46.10;;;26.80;;
64714;SDS011;51144;53.002;6.506;2022-11-18T03:22:23;50.13;;;29.92;;
64714;SDS011;51144;53.002;6.506;2022-11-18T03:25:06;45.38;;;28.38;;
64714;SDS011;51144;53.002;6.506;2022-11-18T03:27:38;46.22;;;28.00;;
64714;SDS011;51144;53.002;6.506;2022-11-18T03:30:07;45.65;;;28.55;;
64714;SDS011;51144;53.002;6.506;2022-11-18T03:32:36;44.58;;;28.73;;
64714;SDS011;51144;53.002;6.506;2022-11-18T03:35:06;46.70;;;26.88;;
64714;SDS011;51144;53.002;6.506;2022-11-18T03:37:36;44.35;;;27.48;;
64714;SDS011;51144;53.002;6.506;2022-11-18T03:40:25;45.58;;;27.33;;
64714;SDS011;51144;53.002;6.506;2022-11-18T03:42:55;44.55;;;28.55;;
64714;SDS011;51144;53.002;6.506;2022-11-18T03:45:35;42.40;;;26.80;;
64714;SDS011;51144;53.002;6.506;2022-11-18T03:48:17;41.00;;;26.92;;
64714;SDS011;51144;53.002;6.506;2022-11-18T03:50:54;44.50;;;28.40;;
64714;SDS011;51144;53.002;6.506;2022-11-18T03:53:26;44.72;;;27.83;;
64714;SDS011;51144;53.002;6.506;2022-11-18T03:55:58;44.95;;;27.85;;
64714;SDS011;51144;53.002;6.506;2022-11-18T04:01:02;43.10;;;27.50;;
64714;SDS011;51144;53.002;6.506;2022-11-18T04:03:33;47.20;;;29.33;;
64714;SDS011;51144;53.002;6.506;2022-11-18T04:06:03;43.35;;;30.65;;
64714;SDS011;51144;53.002;6.506;2022-11-18T04:08:41;43.20;;;28.17;;
64714;SDS011;51144;53.002;6.506;2022-11-18T04:11:14;45.35;;;27.83;;
64714;SDS011;51144;53.002;6.506;2022-11-18T04:14:03;45.30;;;29.20;;
64714;SDS011;51144;53.002;6.506;2022-11-18T04:16:37;39.78;;;27.50;;
64714;SDS011;51144;53.002;6.506;2022-11-18T04:19:07;42.22;;;29.80;;
64714;SDS011;51144;53.002;6.506;2022-11-18T04:21:33;42.78;;;29.38;;
64714;SDS011;51144;53.002;6.506;2022-11-18T04:23:59;40.42;;;27.98;;
64714;SDS011;51144;53.002;6.506;2022-11-18T04:26:24;42.03;;;28.10;;
64714;SDS011;51144;53.002;6.506;2022-11-18T04:28:50;37.70;;;26.83;;
64714;SDS011;51144;53.002;6.506;2022-11-18T04:31:15;39.25;;;27.25;;
64714;SDS011;51144;53.002;6.506;2022-11-18T04:33:41;39.92;;;26.15;;
64714;SDS011;51144;53.002;6.506;2022-11-18T04:36:07;39.83;;;27.42;;
64714;SDS011;51144;53.002;6.506;2022-11-18T04:38:33;41.05;;;27.95;;
64714;SDS011;51144;53.002;6.506;2022-11-18T04:40:58;39.00;;;26.15;;
64714;SDS011;51144;53.002;6.506;2022-11-18T04:43:24;39.10;;;27.73;;
64714;SDS011;51144;53.002;6.506;2022-11-18T04:45:50;38.33;;;26.25;;
64714;SDS011;51144;53.002;6.506;2022-11-18T04:48:15;41.22;;;26.48;;
64714;SDS011;51144;53.002;6.506;2022-11-18T04:50:41;37.95;;;25.35;;
64714;SDS011;51144;53.002;6.506;2022-11-18T04:53:06;39.55;;;25.92;;
64714;SDS011;51144;53.002;6.506;2022-11-18T04:55:34;38.90;;;26.17;;
64714;SDS011;51144;53.002;6.506;2022-11-18T04:58:00;38.08;;;26.35;;
64714;SDS011;51144;53.002;6.506;2022-11-18T05:00:26;44.78;;;26.15;;
64714;SDS011;51144;53.002;6.506;2022-11-18T05:02:52;38.30;;;24.60;;
64714;SDS011;51144;53.002;6.506;2022-11-18T05:05:17;38.63;;;26.30;;
64714;SDS011;51144;53.002;6.506;2022-11-18T05:07:43;36.88;;;22.80;;
64714;SDS011;51144;53.002;6.506;2022-11-18T05:10:09;36.92;;;22.85;;
64714;SDS011;51144;53.002;6.506;2022-11-18T05:12:34;35.03;;;24.23;;
64714;SDS011;51144;53.002;6.506;2022-11-18T05:15:16;42.53;;;24.63;;
64714;SDS011;51144;53.002;6.506;2022-11-18T05:17:43;35.58;;;24.75;;
64714;SDS011;51144;53.002;6.506;2022-11-18T05:20:09;36.28;;;24.15;;
64714;SDS011;51144;53.002;6.506;2022-11-18T05:22:35;36.35;;;23.67;;
64714;SDS011;51144;53.002;6.506;2022-11-18T05:25:01;38.70;;;23.90;;
64714;SDS011;51144;53.002;6.506;2022-11-18T05:27:27;38.42;;;24.67;;
64714;SDS011;51144;53.002;6.506;2022-11-18T05:29:53;36.08;;;22.33;;
64714;SDS011;51144;53.002;6.506;2022-11-18T05:32:18;41.65;;;23.90;;
64714;SDS011;51144;53.002;6.506;2022-11-18T05:34:44;38.78;;;24.92;;
64714;SDS011;51144;53.002;6.506;2022-11-18T05:37:09;36.80;;;23.83;;
64714;SDS011;51144;53.002;6.506;2022-11-18T05:39:35;36.90;;;24.10;;
64714;SDS011;51144;53.002;6.506;2022-11-18T05:42:01;42.50;;;25.55;;
64714;SDS011;51144;53.002;6.506;2022-11-18T05:44:45;41.97;;;25.13;;
64714;SDS011;51144;53.002;6.506;2022-11-18T05:47:10;39.22;;;25.52;;
64714;SDS011;51144;53.002;6.506;2022-11-18T05:49:36;37.10;;;23.52;;
64714;SDS011;51144;53.002;6.506;2022-11-18T05:52:03;42.83;;;26.50;;
64714;SDS011;51144;53.002;6.506;2022-11-18T05:54:29;41.83;;;27.08;;
64714;SDS011;51144;53.002;6.506;2022-11-18T05:56:56;38.25;;;22.60;;
64714;SDS011;51144;53.002;6.506;2022-11-18T05:59:21;44.92;;;24.13;;
64714;SDS011;51144;53.002;6.506;2022-11-18T06:02:03;39.90;;;25.70;;
64714;SDS011;51144;53.002;6.506;2022-11-18T06:07:17;45.97;;;27.17;;
64714;SDS011;51144;53.002;6.506;2022-11-18T06:09:48;43.97;;;26.38;;
64714;SDS011;51144;53.002;6.506;2022-11-18T06:12:18;38.88;;;23.55;;
64714;SDS011;51144;53.002;6.506;2022-11-18T06:14:49;37.10;;;24.63;;
64714;SDS011;51144;53.002;6.506;2022-11-18T06:17:23;47.05;;;24.10;;
64714;SDS011;51144;53.002;6.506;2022-11-18T06:19:53;40.28;;;24.80;;
64714;SDS011;51144;53.002;6.506;2022-11-18T06:22:19;40.33;;;25.55;;
64714;SDS011;51144;53.002;6.506;2022-11-18T06:24:45;42.33;;;23.35;;
64714;SDS011;51144;53.002;6.506;2022-11-18T06:27:11;41.15;;;23.45;;
64714;SDS011;51144;53.002;6.506;2022-11-18T06:29:38;38.42;;;23.02;;
64714;SDS011;51144;53.002;6.506;2022-11-18T06:32:04;44.42;;;25.20;;
64714;SDS011;51144;53.002;6.506;2022-11-18T06:34:30;41.22;;;25.65;;
64714;SDS011;51144;53.002;6.506;2022-11-18T06:36:56;39.85;;;24.67;;
64714;SDS011;51144;53.002;6.506;2022-11-18T06:39:21;47.58;;;25.60;;
64714;SDS011;51144;53.002;6.506;2022-11-18T06:41:47;42.78;;;23.85;;
64714;SDS011;51144;53.002;6.506;2022-11-18T06:44:12;41.70;;;25.67;;
64714;SDS011;51144;53.002;6.506;2022-11-18T06:46:38;41.35;;;25.70;;
64714;SDS011;51144;53.002;6.506;2022-11-18T06:49:19;39.13;;;24.42;;
64714;SDS011;51144;53.002;6.506;2022-11-18T06:51:45;44.70;;;24.27;;
64714;SDS011;51144;53.002;6.506;2022-11-18T06:54:10;41.28;;;25.30;;
64714;SDS011;51144;53.002;6.506;2022-11-18T06:56:36;44.15;;;24.85;;
64714;SDS011;51144;53.002;6.506;2022-11-18T06:59:02;48.42;;;24.58;;
64714;SDS011;51144;53.002;6.506;2022-11-18T07:01:29;45.08;;;25.75;;
64714;SDS011;51144;53.002;6.506;2022-11-18T07:03:59;40.55;;;22.05;;
64714;SDS011;51144;53.002;6.506;2022-11-18T07:06:26;49.35;;;25.42;;
64714;SDS011;51144;53.002;6.506;2022-11-18T07:08:54;42.25;;;24.85;;
64714;SDS011;51144;53.002;6.506;2022-11-18T07:11:20;47.97;;;24.83;;
64714;SDS011;51144;53.002;6.506;2022-11-18T07:13:50;43.15;;;25.55;;
64714;SDS011;51144;53.002;6.506;2022-11-18T07:16:20;50.17;;;26.85;;
64714;SDS011;51144;53.002;6.506;2022-11-18T07:18:47;42.22;;;22.33;;
64714;SDS011;51144;53.002;6.506;2022-11-18T07:21:15;53.30;;;26.63;;
64714;SDS011;51144;53.002;6.506;2022-11-18T07:23:45;44.65;;;24.85;;
64714;SDS011;51144;53.002;6.506;2022-11-18T07:26:11;45.53;;;25.23;;
64714;SDS011;51144;53.002;6.506;2022-11-18T07:28:37;43.38;;;25.13;;
64714;SDS011;51144;53.002;6.506;2022-11-18T07:31:07;38.05;;;23.83;;
64714;SDS011;51144;53.002;6.506;2022-11-18T07:33:35;41.88;;;22.60;;
64714;SDS011;51144;53.002;6.506;2022-11-18T07:36:01;42.40;;;23.48;;
64714;SDS011;51144;53.002;6.506;2022-11-18T07:38:32;42.17;;;22.02;;
64714;SDS011;51144;53.002;6.506;2022-11-18T07:41:05;41.63;;;23.38;;
64714;SDS011;51144;53.002;6.506;2022-11-18T07:43:32;39.45;;;21.40;;
64714;SDS011;51144;53.002;6.506;2022-11-18T07:48:54;36.65;;;21.08;;
64714;SDS011;51144;53.002;6.506;2022-11-18T07:51:23;37.00;;;21.23;;
64714;SDS011;51144;53.002;6.506;2022-11-18T07:53:59;30.42;;;20.25;;
64714;SDS011;51144;53.002;6.506;2022-11-18T07:56:25;31.85;;;19.63;;
64714;SDS011;51144;53.002;6.506;2022-11-18T07:58:51;27.42;;;17.20;;
64714;SDS011;51144;53.002;6.506;2022-11-18T08:01:19;31.08;;;17.75;;
64714;SDS011;51144;53.002;6.506;2022-11-18T08:03:46;28.70;;;17.40;;
64714;SDS011;51144;53.002;6.506;2022-11-18T08:06:13;29.92;;;19.55;;
64714;SDS011;51144;53.002;6.506;2022-11-18T08:08:40;28.17;;;17.75;;
64714;SDS011;51144;53.002;6.506;2022-11-18T08:11:07;29.90;;;18.10;;
64714;SDS011;51144;53.002;6.506;2022-11-18T08:13:34;32.58;;;19.83;;
64714;SDS011;51144;53.002;6.506;2022-11-18T08:16:00;33.35;;;18.95;;
64714;SDS011;51144;53.002;6.506;2022-11-18T08:18:27;22.65;;;16.25;;
64714;SDS011;51144;53.002;6.506;2022-11-18T08:20:54;29.17;;;18.08;;
64714;SDS011;51144;53.002;6.506;2022-11-18T08:23:19;29.33;;;17.55;;
64714;SDS011;51144;53.002;6.506;2022-11-18T08:25:45;25.42;;;16.75;;
64714;SDS011;51144;53.002;6.506;2022-11-18T08:28:12;24.63;;;15.52;;
64714;SDS011;51144;53.002;6.506;2022-11-18T08:30:38;21.45;;;13.57;;
64714;SDS011;51144;53.002;6.506;2022-11-18T08:33:04;21.45;;;13.05;;
64714;SDS011;51144;53.002;6.506;2022-11-18T08:35:30;14.63;;;10.38;;
64714;SDS011;51144;53.002;6.506;2022-11-18T08:37:56;20.25;;;12.38;;
64714;SDS011;51144;53.002;6.506;2022-11-18T08:40:23;21.27;;;13.57;;
64714;SDS011;51144;53.002;6.506;2022-11-18T08:42:49;19.80;;;13.98;;
64714;SDS011;51144;53.002;6.506;2022-11-18T08:45:14;20.30;;;13.73;;
64714;SDS011;51144;53.002;6.506;2022-11-18T08:47:41;22.13;;;14.05;;
64714;SDS011;51144;53.002;6.506;2022-11-18T08:50:07;22.73;;;13.63;;
64714;SDS011;51144;53.002;6.506;2022-11-18T08:52:34;18.33;;;13.20;;
64714;SDS011;51144;53.002;6.506;2022-11-18T08:55:00;20.85;;;15.02;;
64714;SDS011;51144;53.002;6.506;2022-11-18T08:57:27;27.08;;;15.27;;
64714;SDS011;51144;53.002;6.506;2022-11-18T08:59:52;27.13;;;15.77;;
64714;SDS011;51144;53.002;6.506;2022-11-18T09:02:19;25.52;;;15.20;;
64714;SDS011;51144;53.002;6.506;2022-11-18T09:04:46;21.67;;;14.60;;
64714;SDS011;51144;53.002;6.506;2022-11-18T09:07:12;24.60;;;16.73;;
64714;SDS011;51144;53.002;6.506;2022-11-18T09:09:38;23.13;;;15.40;;
64714;SDS011;51144;53.002;6.506;2022-11-18T09:12:03;25.48;;;16.67;;
64714;SDS011;51144;53.002;6.506;2022-11-18T09:14:29;26.00;;;15.45;;
64714;SDS011;51144;53.002;6.506;2022-11-18T09:16:55;23.60;;;15.30;;
64714;SDS011;51144;53.002;6.506;2022-11-18T09:19:21;33.20;;;17.25;;
64714;SDS011;51144;53.002;6.506;2022-11-18T09:21:47;26.25;;;17.05;;
64714;SDS011;51144;53.002;6.506;2022-11-18T09:24:12;29.00;;;17.75;;
64714;SDS011;51144;53.002;6.506;2022-11-18T09:26:39;25.45;;;16.38;;
64714;SDS011;51144;53.002;6.506;2022-11-18T09:29:05;30.63;;;18.15;;
64714;SDS011;51144;53.002;6.506;2022-11-18T09:31:31;24.08;;;17.55;;
64714;SDS011;51144;53.002;6.506;2022-11-18T09:33:59;27.00;;;16.65;;
64714;SDS011;51144;53.002;6.506;2022-11-18T09:36:25;26.20;;;16.55;;
64714;SDS011;51144;53.002;6.506;2022-11-18T09:38:51;25.08;;;17.73;;
64714;SDS011;51144;53.002;6.506;2022-11-18T09:47:10;21.55;;;14.77;;
64714;SDS011;51144;53.002;6.506;2022-11-18T09:49:49;21.67;;;16.20;;
64714;SDS011;51144;53.002;6.506;2022-11-18T09:52:20;23.60;;;14.93;;
64714;SDS011;51144;53.002;6.506;2022-11-18T09:54:53;28.67;;;16.92;;
64714;SDS011;51144;53.002;6.506;2022-11-18T09:57:43;40.17;;;16.95;;
64714;SDS011;51144;53.002;6.506;2022-11-18T10:00:18;30.38;;;16.33;;
64714;SDS011;51144;53.002;6.506;2022-11-18T10:02:56;24.85;;;17.13;;
64714;SDS011;51144;53.002;6.506;2022-11-18T10:05:32;23.02;;;15.20;;
64714;SDS011;51144;53.002;6.506;2022-11-18T10:08:14;26.70;;;14.85;;
64714;SDS011;51144;53.002;6.506;2022-11-18T10:10:57;26.50;;;15.15;;
64714;SDS011;51144;53.002;6.506;2022-11-18T10:16:47;20.02;;;14.70;;
64714;SDS011;51144;53.002;6.506;2022-11-18T10:19:35;19.95;;;12.95;;
64714;SDS011;51144;53.002;6.506;2022-11-18T10:24:58;19.40;;;12.48;;
64714;SDS011;51144;53.002;6.506;2022-11-18T10:27:26;17.17;;;11.27;;
64714;SDS011;51144;53.002;6.506;2022-11-18T10:30:01;15.93;;;11.65;;
64714;SDS011;51144;53.002;6.506;2022-11-18T10:32:34;16.88;;;13.25;;
64714;SDS011;51144;53.002;6.506;2022-11-18T10:34:59;20.63;;;14.02;;
64714;SDS011;51144;53.002;6.506;2022-11-18T10:37:29;19.80;;;13.57;;
64714;SDS011;51144;53.002;6.506;2022-11-18T10:39:57;23.60;;;14.30;;
64714;SDS011;51144;53.002;6.506;2022-11-18T10:42:28;16.20;;;11.43;;
64714;SDS011;51144;53.002;6.506;2022-11-18T10:47:44;23.77;;;15.82;;
64714;SDS011;51144;53.002;6.506;2022-11-18T10:50:30;20.83;;;14.88;;
64714;SDS011;51144;53.002;6.506;2022-11-18T10:52:56;25.10;;;16.35;;
64714;SDS011;51144;53.002;6.506;2022-11-18T10:55:22;22.92;;;15.20;;
64714;SDS011;51144;53.002;6.506;2022-11-18T10:57:50;25.75;;;17.45;;
64714;SDS011;51144;53.002;6.506;2022-11-18T11:00:35;23.17;;;14.95;;
64714;SDS011;51144;53.002;6.506;2022-11-18T11:08:51;25.92;;;16.48;;
64714;SDS011;51144;53.002;6.506;2022-11-18T11:11:37;29.40;;;16.17;;
64714;SDS011;51144;53.002;6.506;2022-11-18T11:14:26;22.77;;;14.65;;
64714;SDS011;51144;53.002;6.506;2022-11-18T11:17:01;24.17;;;16.20;;
64714;SDS011;51144;53.002;6.506;2022-11-18T11:19:42;26.98;;;16.67;;
64714;SDS011;51144;53.002;6.506;2022-11-18T11:22:13;22.60;;;14.65;;
64714;SDS011;51144;53.002;6.506;2022-11-18T11:24:40;23.83;;;15.77;;
64714;SDS011;51144;53.002;6.506;2022-11-18T11:30:09;23.20;;;14.43;;
64714;SDS011;51144;53.002;6.506;2022-11-18T11:32:48;25.40;;;14.85;;
64714;SDS011;51144;53.002;6.506;2022-11-18T11:35:24;24.75;;;15.73;;
64714;SDS011;51144;53.002;6.506;2022-11-18T11:38:13;26.85;;;14.50;;
64714;SDS011;51144;53.002;6.506;2022-11-18T11:41:06;24.02;;;13.85;;
64714;SDS011;51144;53.002;6.506;2022-11-18T11:46:44;21.05;;;14.35;;
64714;SDS011;51144;53.002;6.506;2022-11-18T11:49:44;25.30;;;15.40;;
64714;SDS011;51144;53.002;6.506;2022-11-18T11:53:02;31.33;;;15.00;;
64714;SDS011;51144;53.002;6.506;2022-11-18T11:55:36;25.73;;;17.52;;
64714;SDS011;51144;53.002;6.506;2022-11-18T12:06:48;33.55;;;16.85;;
64714;SDS011;51144;53.002;6.506;2022-11-18T12:14:33;27.88;;;15.95;;
64714;SDS011;51144;53.002;6.506;2022-11-18T12:17:13;18.90;;;11.80;;
64714;SDS011;51144;53.002;6.506;2022-11-18T12:19:45;21.08;;;12.25;;
64714;SDS011;51144;53.002;6.506;2022-11-18T12:22:11;18.67;;;10.93;;
64714;SDS011;51144;53.002;6.506;2022-11-18T12:24:38;20.02;;;12.48;;
64714;SDS011;51144;53.002;6.506;2022-11-18T12:32:29;19.40;;;12.13;;
64714;SDS011;51144;53.002;6.506;2022-11-18T12:50:49;8.57;;;6.90;;
64714;SDS011;51144;53.002;6.506;2022-11-18T12:53:30;11.30;;;7.50;;
64714;SDS011;51144;53.002;6.506;2022-11-18T12:55:59;12.63;;;7.90;;
64714;SDS011;51144;53.002;6.506;2022-11-18T12:58:58;13.77;;;6.88;;
64714;SDS011;51144;53.002;6.506;2022-11-18T13:01:26;8.98;;;6.53;;
64714;SDS011;51144;53.002;6.506;2022-11-18T13:04:15;13.50;;;8.02;;
64714;SDS011;51144;53.002;6.506;2022-11-18T13:06:44;14.50;;;8.13;;
64714;SDS011;51144;53.002;6.506;2022-11-18T13:09:14;15.48;;;9.63;;
64714;SDS011;51144;53.002;6.506;2022-11-18T13:11:45;14.07;;;9.18;;
64714;SDS011;51144;53.002;6.506;2022-11-18T13:14:19;14.98;;;8.98;;
64714;SDS011;51144;53.002;6.506;2022-11-18T13:20:28;14.90;;;9.63;;
64714;SDS011;51144;53.002;6.506;2022-11-18T13:22:59;17.15;;;10.35;;
64714;SDS011;51144;53.002;6.506;2022-11-18T13:25:43;16.45;;;11.27;;
64714;SDS011;51144;53.002;6.506;2022-11-18T13:33:46;16.03;;;10.03;;
64714;SDS011;51144;53.002;6.506;2022-11-18T13:36:15;17.92;;;13.05;;
64714;SDS011;51144;53.002;6.506;2022-11-18T13:41:25;17.63;;;11.45;;
64714;SDS011;51144;53.002;6.506;2022-11-18T13:44:09;22.83;;;11.95;;
64714;SDS011;51144;53.002;6.506;2022-11-18T13:46:41;19.70;;;11.57;;
64714;SDS011;51144;53.002;6.506;2022-11-18T13:49:11;16.65;;;10.75;;
64714;SDS011;51144;53.002;6.506;2022-11-18T13:51:42;17.88;;;10.65;;
64714;SDS011;51144;53.002;6.506;2022-11-18T13:54:12;18.13;;;11.07;;
64714;SDS011;51144;53.002;6.506;2022-11-18T13:56:44;18.58;;;11.60;;
64714;SDS011;51144;53.002;6.506;2022-11-18T13:59:14;19.80;;;12.52;;
64714;SDS011;51144;53.002;6.506;2022-11-18T14:01:44;23.88;;;13.93;;
64714;SDS011;51144;53.002;6.506;2022-11-18T14:04:21;17.40;;;12.27;;
64714;SDS011;51144;53.002;6.506;2022-11-18T14:06:49;19.90;;;13.23;;
64714;SDS011;51144;53.002;6.506;2022-11-18T14:11:42;20.60;;;13.80;;
64714;SDS011;51144;53.002;6.506;2022-11-18T14:14:30;21.27;;;12.18;;
64714;SDS011;51144;53.002;6.506;2022-11-18T14:19:42;16.30;;;11.35;;
64714;SDS011;51144;53.002;6.506;2022-11-18T14:22:11;18.65;;;11.25;;
64714;SDS011;51144;53.002;6.506;2022-11-18T14:24:40;16.83;;;11.40;;
64714;SDS011;51144;53.002;6.506;2022-11-18T14:29:57;19.85;;;12.45;;
64714;SDS011;51144;53.002;6.506;2022-11-18T14:32:24;17.20;;;11.80;;
64714;SDS011;51144;53.002;6.506;2022-11-18T14:34:59;20.20;;;12.02;;
64714;SDS011;51144;53.002;6.506;2022-11-18T14:37:25;18.23;;;12.35;;
64714;SDS011;51144;53.002;6.506;2022-11-18T14:39:55;18.60;;;12.05;;
64714;SDS011;51144;53.002;6.506;2022-11-18T14:42:22;19.45;;;11.30;;
64714;SDS011;51144;53.002;6.506;2022-11-18T14:44:48;14.20;;;10.15;;
64714;SDS011;51144;53.002;6.506;2022-11-18T14:47:20;14.27;;;10.27;;
64714;SDS011;51144;53.002;6.506;2022-11-18T14:49:49;16.80;;;11.52;;
64714;SDS011;51144;53.002;6.506;2022-11-18T14:52:15;16.88;;;11.63;;
64714;SDS011;51144;53.002;6.506;2022-11-18T14:54:41;16.95;;;11.95;;
64714;SDS011;51144;53.002;6.506;2022-11-18T14:57:09;22.65;;;11.80;;
64714;SDS011;51144;53.002;6.506;2022-11-18T14:59:41;18.58;;;11.65;;
64714;SDS011;51144;53.002;6.506;2022-11-18T15:02:14;20.98;;;13.35;;
64714;SDS011;51144;53.002;6.506;2022-11-18T15:04:40;20.60;;;13.13;;
64714;SDS011;51144;53.002;6.506;2022-11-18T15:07:08;18.33;;;12.65;;
64714;SDS011;51144;53.002;6.506;2022-11-18T15:09:36;21.83;;;13.40;;
64714;SDS011;51144;53.002;6.506;2022-11-18T15:12:02;25.65;;;15.98;;
64714;SDS011;51144;53.002;6.506;2022-11-18T15:14:27;23.15;;;13.93;;
64714;SDS011;51144;53.002;6.506;2022-11-18T15:16:53;20.92;;;13.35;;
64714;SDS011;51144;53.002;6.506;2022-11-18T15:19:18;25.85;;;13.95;;
64714;SDS011;51144;53.002;6.506;2022-11-18T15:21:44;22.33;;;14.13;;
64714;SDS011;51144;53.002;6.506;2022-11-18T15:24:09;24.48;;;15.75;;
64714;SDS011;51144;53.002;6.506;2022-11-18T15:26:37;22.02;;;14.63;;
64714;SDS011;51144;53.002;6.506;2022-11-18T15:29:04;24.33;;;14.23;;
64714;SDS011;51144;53.002;6.506;2022-11-18T15:31:30;19.67;;;14.15;;
64714;SDS011;51144;53.002;6.506;2022-11-18T15:33:56;20.52;;;14.30;;
64714;SDS011;51144;53.002;6.506;2022-11-18T15:36:23;18.13;;;13.27;;
64714;SDS011;51144;53.002;6.506;2022-11-18T15:38:50;22.50;;;14.35;;
64714;SDS011;51144;53.002;6.506;2022-11-18T15:43:45;17.08;;;13.07;;
64714;SDS011;51144;53.002;6.506;2022-11-18T15:46:12;17.77;;;11.13;;
64714;SDS011;51144;53.002;6.506;2022-11-18T15:48:38;15.00;;;10.75;;
64714;SDS011;51144;53.002;6.506;2022-11-18T15:51:04;17.35;;;11.52;;
64714;SDS011;51144;53.002;6.506;2022-11-18T15:53:30;15.55;;;11.35;;
64714;SDS011;51144;53.002;6.506;2022-11-18T15:58:40;17.85;;;11.57;;
64714;SDS011;51144;53.002;6.506;2022-11-18T16:01:06;17.63;;;12.65;;
64714;SDS011;51144;53.002;6.506;2022-11-18T16:03:35;18.48;;;13.35;;
64714;SDS011;51144;53.002;6.506;2022-11-18T16:06:00;19.60;;;13.23;;
64714;SDS011;51144;53.002;6.506;2022-11-18T16:08:26;20.40;;;13.57;;
64714;SDS011;51144;53.002;6.506;2022-11-18T16:10:55;19.52;;;13.75;;
64714;SDS011;51144;53.002;6.506;2022-11-18T16:13:40;19.67;;;13.05;;
64714;SDS011;51144;53.002;6.506;2022-11-18T16:16:06;18.98;;;12.43;;
64714;SDS011;51144;53.002;6.506;2022-11-18T16:18:32;19.40;;;12.57;;
64714;SDS011;51144;53.002;6.506;2022-11-18T16:20:58;16.38;;;11.48;;
64714;SDS011;51144;53.002;6.506;2022-11-18T16:23:24;17.17;;;11.82;;
64714;SDS011;51144;53.002;6.506;2022-11-18T16:25:52;17.90;;;12.65;;
64714;SDS011;51144;53.002;6.506;2022-11-18T16:28:18;14.88;;;11.77;;
64714;SDS011;51144;53.002;6.506;2022-11-18T16:30:47;15.43;;;11.98;;
64714;SDS011;51144;53.002;6.506;2022-11-18T16:33:32;16.02;;;12.45;;
64714;SDS011;51144;53.002;6.506;2022-11-18T16:35:57;18.95;;;12.10;;